Time;durP1;ratioP1;P1;durP2;ratioP2;P2;SDS_P1;SDS_P2;PMS_P1;PMS_P2;Temp;Humidity;BMP_temperature;BMP_pressure;BME280_temperature;BME280_humidity;BME280_pressure;Samples;Min_cycle;Max_cycle;Signal;HPM_P1;HPM_P2
2022/07/03 00:01:21;;;;;;;9.45;6.00;;;;;;;17.68;69.56;99550.91;5117076;27;20073;-75
2022/07/03 00:03:45;;;;;;;8.43;6.25;;;;;;;17.74;69.45;99550.25;5089872;27;20054;-72
2022/07/03 00:06:10;;;;;;;9.73;6.18;;;;;;;17.81;69.01;99540.53;5086093;27;20091;-76
2022/07/03 00:08:36;;;;;;;14.38;7.88;;;;;;;17.87;68.33;99539.06;5090037;27;20046;-73
2022/07/03 00:11:00;;;;;;;13.85;6.68;;;;;;;17.92;68.58;99536.75;5085329;27;20038;-73
2022/07/03 00:13:25;;;;;;;8.98;6.28;;;;;;;17.93;67.81;99519.56;5083827;27;20039;-75
2022/07/03 00:15:50;;;;;;;12.27;7.43;;;;;;;17.88;66.84;99517.31;5092339;27;20100;-74
2022/07/03 00:18:15;;;;;;;13.40;6.93;;;;;;;17.88;67.21;99503.84;5094403;27;20039;-74
2022/07/03 00:20:47;;;;;;;12.63;6.05;;;;;;;17.91;67.15;99503.53;5088510;27;20037;-71
2022/07/03 00:23:16;;;;;;;12.27;6.90;;;;;;;17.89;65.01;99489.34;5115276;27;20103;-76
2022/07/03 00:25:42;;;;;;;12.98;6.85;;;;;;;17.83;64.31;99494.53;5101600;27;20057;-72
2022/07/03 00:28:08;;;;;;;10.40;6.20;;;;;;;17.82;63.35;99498.25;5100359;27;20133;-71
2022/07/03 00:30:34;;;;;;;15.02;6.53;;;;;;;17.82;63.49;99496.41;5100338;27;20635;-72
2022/07/03 00:33:04;;;;;;;13.90;7.00;;;;;;;17.85;64.05;99493.34;5116592;27;20117;-72
2022/07/03 00:35:32;;;;;;;9.98;7.13;;;;;;;17.89;63.66;99499.28;5098896;27;20042;-74
2022/07/03 00:37:58;;;;;;;11.73;6.43;;;;;;;17.88;62.99;99498.44;5037224;28;20050;-74
2022/07/03 00:40:24;;;;;;;12.20;5.97;;;;;;;17.91;62.83;99500.81;5050513;28;20055;-73
2022/07/03 00:42:51;;;;;;;16.90;7.00;;;;;;;17.92;63.37;99498.97;5046411;28;20040;-73
2022/07/03 00:45:19;;;;;;;9.10;6.13;;;;;;;17.98;64.08;99487.53;5029320;28;20036;-73
2022/07/03 00:47:43;;;;;;;13.02;7.00;;;;;;;18.01;64.30;99485.38;5045974;28;20063;-71
2022/07/03 00:50:09;;;;;;;13.20;6.70;;;;;;;18.06;64.97;99488.41;5012329;28;20048;-72
2022/07/03 00:52:37;;;;;;;11.93;6.60;;;;;;;18.09;65.29;99484.56;5043077;28;20057;-75
2022/07/03 00:55:07;;;;;;;11.52;6.15;;;;;;;18.07;60.76;99486.56;5041121;28;20048;-73
2022/07/03 00:57:32;;;;;;;8.48;6.10;;;;;;;18.06;60.18;99483.00;5016923;28;20080;-75
2022/07/03 00:59:57;;;;;;;9.57;6.10;;;;;;;18.10;63.07;99473.59;5047007;28;20575;-74
2022/07/03 01:02:45;;;;;;;11.27;5.75;;;;;;;18.19;62.79;99479.03;5034139;28;20040;-71
2022/07/03 01:05:22;;;;;;;13.93;5.88;;;;;;;18.21;62.21;99485.13;5048175;28;20082;-77
2022/07/03 01:08:14;;;;;;;10.25;5.95;;;;;;;18.26;62.61;99485.50;5047161;28;20102;-76
2022/07/03 01:11:00;;;;;;;8.27;5.45;;;;;;;18.34;63.08;99489.06;5090927;27;20778;-75
2022/07/03 01:13:55;;;;;;;8.98;5.28;;;;;;;18.37;60.13;99494.13;5107539;27;20043;-73
2022/07/03 01:16:30;;;;;;;9.30;5.57;;;;;;;18.42;62.85;99502.56;5091357;27;20130;-72
2022/07/03 01:19:08;;;;;;;13.07;6.13;;;;;;;18.42;61.98;99497.19;5089266;27;20062;-74
2022/07/03 01:21:52;;;;;;;12.32;6.10;;;;;;;18.46;62.54;99500.41;5108277;27;20043;-72
2022/07/03 01:24:54;;;;;;;11.40;6.28;;;;;;;18.45;62.24;99493.31;5091990;27;20045;-76
2022/07/03 01:27:28;;;;;;;8.75;5.38;;;;;;;18.38;63.12;99495.84;5108500;27;20401;-76
2022/07/03 01:30:03;;;;;;;9.70;6.03;;;;;;;18.35;63.56;99495.31;5089718;27;20087;-71
2022/07/03 01:32:33;;;;;;;11.40;6.10;;;;;;;18.28;63.33;99500.50;5091438;27;20501;-76
2022/07/03 01:35:01;;;;;;;10.48;6.05;;;;;;;18.25;64.28;99483.78;5091338;27;20035;-69
2022/07/03 01:37:27;;;;;;;8.38;6.10;;;;;;;18.23;64.74;99492.03;5108290;27;20039;-71
2022/07/03 01:39:53;;;;;;;8.45;6.13;;;;;;;18.20;64.92;99484.28;5089709;27;20980;-71
2022/07/03 01:42:19;;;;;;;9.35;5.60;;;;;;;18.20;65.10;99486.97;5107169;27;20087;-71
2022/07/03 01:44:47;;;;;;;11.35;5.70;;;;;;;18.24;65.17;99488.34;5107966;27;20042;-71
2022/07/03 01:47:12;;;;;;;11.65;5.50;;;;;;;18.25;65.68;99500.84;5091824;27;20043;-76
2022/07/03 01:49:39;;;;;;;10.75;5.68;;;;;;;18.29;65.84;99493.22;5104072;27;20058;-71
2022/07/03 01:52:05;;;;;;;13.32;6.95;;;;;;;18.32;65.99;99488.38;5098399;27;20047;-67
2022/07/03 01:54:31;;;;;;;13.63;5.90;;;;;;;18.36;66.49;99480.81;5098024;27;20042;-67
2022/07/03 01:56:58;;;;;;;10.57;6.18;;;;;;;18.42;66.71;99488.22;5098311;27;20097;-68
2022/07/03 01:59:23;;;;;;;11.85;6.65;;;;;;;18.46;66.82;99485.06;5079943;27;20054;-67
2022/07/03 02:01:52;;;;;;;8.30;5.43;;;;;;;18.54;66.98;99486.09;5079698;27;20042;-66
2022/07/03 02:04:37;;;;;;;9.68;5.78;;;;;;;18.65;66.46;99488.50;5080028;27;20070;-68
2022/07/03 02:07:15;;;;;;;8.73;5.95;;;;;;;18.74;66.87;99493.75;5099747;27;20039;-70
2022/07/03 02:09:54;;;;;;;8.38;6.38;;;;;;;18.81;66.95;99485.84;5104559;27;20047;-69
2022/07/03 02:12:22;;;;;;;10.98;6.18;;;;;;;18.81;66.68;99480.47;5097634;27;20413;-68
2022/07/03 02:15:03;;;;;;;7.88;5.57;;;;;;;18.96;66.48;99488.75;5078870;27;20054;-68
2022/07/03 02:17:37;;;;;;;8.82;6.60;;;;;;;19.01;66.03;99489.94;5097887;27;20069;-69
2022/07/03 02:20:07;;;;;;;7.47;5.50;;;;;;;19.04;64.94;99478.81;5079622;27;20061;-68
2022/07/03 02:22:34;;;;;;;12.90;6.32;;;;;;;19.12;65.12;99478.78;5097569;27;20063;-69
2022/07/03 02:25:05;;;;;;;8.90;5.95;;;;;;;19.20;63.68;99476.09;5079295;27;20077;-69
2022/07/03 02:27:43;;;;;;;8.77;6.20;;;;;;;19.28;63.56;99477.13;5097476;27;20081;-67
2022/07/03 02:30:10;;;;;;;8.85;5.63;;;;;;;19.36;62.85;99474.41;5099336;27;20074;-67
2022/07/03 02:32:49;;;;;;;7.68;5.72;;;;;;;19.53;63.18;99476.09;5098711;27;20039;-67
2022/07/03 02:35:21;;;;;;;11.40;5.82;;;;;;;19.60;62.84;99476.28;5104697;27;20054;-68
2022/07/03 02:38:01;;;;;;;8.95;5.82;;;;;;;19.73;62.50;99471.19;5085872;27;20051;-71
2022/07/03 02:40:32;;;;;;;9.60;5.85;;;;;;;19.78;61.27;99477.75;5065694;27;20489;-71
2022/07/03 02:44:02;;;;;;;9.15;6.25;;;;;;;19.99;61.33;99473.63;5098828;27;20490;-70
2022/07/03 02:46:48;;;;;;;9.82;5.68;;;;;;;20.06;61.18;99477.34;4977936;28;20148;-71
2022/07/03 02:49:50;;;;;;;11.32;6.60;;;;;;;20.25;60.34;99482.34;4976810;28;20128;-70
2022/07/03 02:52:37;;;;;;;9.77;6.80;;;;;;;20.35;57.86;99474.91;4975557;28;20400;-76
2022/07/03 02:55:10;;;;;;;9.82;6.28;;;;;;;20.37;57.26;99475.56;4960199;28;20136;-73
2022/07/03 02:57:40;;;;;;;11.25;6.20;;;;;;;20.45;55.80;99482.78;4993876;28;20053;-77
2022/07/03 03:00:07;;;;;;;11.68;6.10;;;;;;;20.51;55.49;99476.69;4996010;28;20045;-72
2022/07/03 03:02:55;;;;;;;8.63;6.07;;;;;;;20.62;54.79;99474.44;4978220;28;20492;-74
2022/07/03 03:05:48;;;;;;;6.82;5.53;;;;;;;20.74;54.70;99477.59;4978769;28;20045;-74
2022/07/03 03:08:41;;;;;;;9.80;6.35;;;;;;;20.85;53.22;99476.31;4995467;28;20539;-78
2022/07/03 03:11:08;;;;;;;8.25;5.78;;;;;;;20.88;52.81;99478.69;4994984;28;20049;-74
2022/07/03 03:13:34;;;;;;;10.18;5.63;;;;;;;20.95;53.30;99468.81;4978696;28;20058;-70
2022/07/03 03:16:11;;;;;;;6.60;5.15;;;;;;;21.10;51.83;99475.13;4978675;28;20053;-72
2022/07/03 03:18:38;;;;;;;9.38;5.68;;;;;;;21.12;52.09;99475.78;4978708;28;20506;-75
2022/07/03 03:21:06;;;;;;;11.18;5.28;;;;;;;21.21;51.75;99469.31;5007204;27;20475;-71
2022/07/03 03:23:43;;;;;;;14.68;6.20;;;;;;;21.40;51.98;99472.53;5096691;27;20126;-71
2022/07/03 03:26:09;;;;;;;8.80;5.25;;;;;;;21.50;51.21;99468.53;5096789;27;20054;-71
2022/07/03 03:28:34;;;;;;;8.13;5.40;;;;;;;21.63;50.52;99474.19;5097178;27;20153;-71
2022/07/03 03:30:59;;;;;;;7.57;5.60;;;;;;;21.76;50.42;99468.13;5078952;27;20134;-72
2022/07/03 03:33:24;;;;;;;8.10;5.97;;;;;;;21.88;50.09;99471.22;5078560;27;20130;-71
2022/07/03 03:35:49;;;;;;;10.02;5.60;;;;;;;21.94;49.68;99468.59;5096864;27;20042;-71
2022/07/03 03:38:14;;;;;;;10.82;6.38;;;;;;;22.02;49.47;99462.25;5061420;27;20039;-68
2022/07/03 03:40:39;;;;;;;10.40;6.07;;;;;;;22.07;48.94;99463.41;5078500;27;20046;-68
2022/07/03 03:43:04;;;;;;;11.95;6.07;;;;;;;22.16;49.29;99466.00;5045754;27;20035;-68
2022/07/03 03:45:30;;;;;;;8.85;5.95;;;;;;;22.22;48.99;99463.41;5110419;27;20059;-68
2022/07/03 03:47:55;;;;;;;10.35;6.43;;;;;;;22.31;48.58;99461.41;5086748;27;20034;-71
2022/07/03 03:50:20;;;;;;;7.13;5.50;;;;;;;22.38;48.58;99459.63;5105930;27;20550;-70
2022/07/03 03:52:44;;;;;;;10.07;5.90;;;;;;;22.47;48.36;99458.47;5109873;27;20074;-69
2022/07/03 03:55:09;;;;;;;13.15;6.38;;;;;;;22.58;48.58;99451.69;5091454;27;20073;-71
2022/07/03 03:57:36;;;;;;;10.55;6.30;;;;;;;22.75;48.26;99453.16;5087165;27;20042;-69
2022/07/03 04:00:03;;;;;;;11.60;6.20;;;;;;;22.88;47.56;99447.06;5104441;27;20038;-70
2022/07/03 04:02:40;;;;;;;6.65;5.07;;;;;;;23.03;47.83;99447.81;5087351;27;20046;-70
2022/07/03 04:05:05;;;;;;;9.57;6.20;;;;;;;23.14;47.39;99444.59;5104352;27;20099;-69
2022/07/03 04:07:30;;;;;;;10.45;6.20;;;;;;;23.30;47.27;99444.31;5087617;27;20047;-69
2022/07/03 04:09:55;;;;;;;14.75;6.90;;;;;;;23.45;46.78;99442.38;5074210;27;20520;-69
2022/07/03 04:12:19;;;;;;;14.48;7.15;;;;;;;23.59;46.70;99445.22;5088648;27;20039;-70
2022/07/03 04:14:44;;;;;;;12.25;6.60;;;;;;;23.70;46.50;99453.66;5081634;27;20045;-70
2022/07/03 04:17:09;;;;;;;10.13;6.10;;;;;;;23.84;46.69;99450.00;5079644;27;20505;-70
2022/07/03 04:19:34;;;;;;;12.18;6.47;;;;;;;23.96;46.10;99455.72;5116408;27;20508;-71
2022/07/03 04:21:59;;;;;;;9.07;5.95;;;;;;;24.01;45.81;99455.97;5097882;27;20039;-71
2022/07/03 04:24:24;;;;;;;8.32;6.63;;;;;;;24.12;45.25;99451.84;5116431;27;20030;-73
2022/07/03 04:26:49;;;;;;;13.70;6.22;;;;;;;24.27;45.65;99444.41;5116275;27;20480;-72
2022/07/03 04:29:14;;;;;;;9.25;6.13;;;;;;;24.37;45.89;99449.50;5097912;27;20050;-71
2022/07/03 04:31:38;;;;;;;14.20;6.97;;;;;;;24.47;44.99;99444.50;5097778;27;20046;-69
2022/07/03 04:34:03;;;;;;;9.15;6.20;;;;;;;24.60;45.70;99439.91;5116015;27;20046;-71
2022/07/03 04:36:28;;;;;;;8.85;5.63;;;;;;;24.82;45.50;99443.38;5097486;27;20506;-70
2022/07/03 04:38:53;;;;;;;12.52;5.95;;;;;;;25.04;46.30;99446.78;5116377;27;20141;-70
2022/07/03 04:41:18;;;;;;;8.88;6.68;;;;;;;25.29;45.14;99444.28;5097608;27;20049;-71
2022/07/03 04:43:42;;;;;;;8.02;6.22;;;;;;;25.53;43.98;99449.13;5097679;27;20080;-72
2022/07/03 04:46:07;;;;;;;9.85;6.35;;;;;;;25.82;43.12;99452.50;5115955;27;20058;-71
2022/07/03 04:48:32;;;;;;;8.23;6.28;;;;;;;26.09;42.59;99454.09;5116024;27;20523;-70
2022/07/03 04:50:58;;;;;;;8.77;6.28;;;;;;;26.40;42.06;99458.88;5097536;27;20504;-71
2022/07/03 04:53:23;;;;;;;12.55;6.90;;;;;;;26.73;41.47;99458.75;5115784;27;20083;-70
2022/07/03 04:55:47;;;;;;;8.45;6.20;;;;;;;27.10;41.34;99452.41;5063349;27;20137;-72
2022/07/03 04:58:12;;;;;;;9.88;6.63;;;;;;;27.44;40.44;99448.38;5097585;27;20536;-72
2022/07/03 05:00:37;;;;;;;8.18;6.82;;;;;;;27.76;39.69;99449.19;5116170;27;20575;-71
2022/07/03 05:03:02;;;;;;;9.57;7.22;;;;;;;28.09;38.86;99448.03;5116159;27;20041;-71
2022/07/03 05:05:27;;;;;;;9.73;7.07;;;;;;;28.40;37.78;99458.84;5115640;27;20386;-71
2022/07/03 05:07:52;;;;;;;10.52;7.07;;;;;;;28.66;37.96;99446.72;5115783;27;20393;-71
2022/07/03 05:10:17;;;;;;;10.93;7.22;;;;;;;28.90;37.22;99447.66;5097002;27;20051;-72
2022/07/03 05:12:41;;;;;;;10.27;6.57;;;;;;;29.15;36.29;99453.00;5116108;27;20126;-72
2022/07/03 05:15:07;;;;;;;9.88;6.63;;;;;;;29.37;36.58;99456.03;5115755;27;20126;-71
2022/07/03 05:17:33;;;;;;;10.13;7.13;;;;;;;29.56;36.31;99441.19;5080489;27;20099;-70
2022/07/03 05:22:41;;;;;;;12.75;7.82;;;;;;;29.95;35.37;99436.88;5097824;27;20065;-72
2022/07/03 05:25:06;;;;;;;9.88;7.43;;;;;;;30.11;34.65;99440.84;5128426;27;20038;-72
2022/07/03 05:27:31;;;;;;;10.38;7.15;;;;;;;30.34;35.83;99446.31;5095784;27;20043;-71
2022/07/03 05:29:56;;;;;;;10.10;6.95;;;;;;;30.50;35.34;99451.03;5100082;27;20103;-72
2022/07/03 05:32:20;;;;;;;11.98;8.20;;;;;;;30.63;34.16;99442.53;5098109;27;20129;-73
2022/07/03 05:34:45;;;;;;;12.13;8.13;;;;;;;30.80;33.70;99447.28;5116126;27;20043;-72
2022/07/03 05:37:10;;;;;;;12.20;7.38;;;;;;;30.91;33.65;99462.91;5116146;27;20046;-72
2022/07/03 05:39:37;;;;;;;9.48;7.05;;;;;;;31.04;33.68;99449.66;5097478;27;20397;-73
2022/07/03 05:42:02;;;;;;;9.27;7.03;;;;;;;31.28;33.59;99449.53;5115524;27;20412;-72
2022/07/03 05:44:27;;;;;;;12.00;7.25;;;;;;;31.51;33.36;99441.13;5097423;27;20035;-73
2022/07/03 05:46:52;;;;;;;8.70;7.28;;;;;;;31.78;33.32;99444.06;5063300;27;20039;-71
2022/07/03 05:49:17;;;;;;;11.55;7.10;;;;;;;32.04;32.89;99446.13;5099632;27;20516;-70
2022/07/03 05:51:42;;;;;;;11.68;8.02;;;;;;;32.31;32.85;99443.47;5101121;27;20042;-70
2022/07/03 05:54:06;;;;;;;9.90;7.25;;;;;;;32.60;31.53;99449.66;5083350;27;20050;-71
2022/07/03 05:56:31;;;;;;;14.93;8.00;;;;;;;32.97;31.77;99444.28;5083879;27;20122;-71
2022/07/03 05:58:56;;;;;;;8.95;7.03;;;;;;;33.38;31.35;99441.97;5119658;27;20125;-70
2022/07/03 06:01:23;;;;;;;8.38;7.28;;;;;;;33.86;30.25;99444.56;5101125;27;20500;-70
2022/07/03 06:03:48;;;;;;;12.73;8.38;;;;;;;34.41;29.07;99445.19;5067067;27;20457;-72
2022/07/03 06:06:12;;;;;;;12.10;8.55;;;;;;;34.97;28.25;99456.50;5101180;27;20108;-72
2022/07/03 06:08:37;;;;;;;11.20;8.13;;;;;;;35.52;27.40;99451.06;5103614;27;20084;-72
2022/07/03 06:11:02;;;;;;;14.95;9.00;;;;;;;36.09;27.41;99444.34;5111613;27;20047;-72
2022/07/03 06:13:27;;;;;;;10.68;7.50;;;;;;;36.60;25.74;99450.56;5089864;27;20042;-72
2022/07/03 06:15:52;;;;;;;14.65;8.48;;;;;;;37.08;25.39;99453.69;5083436;27;20058;-72
2022/07/03 06:18:17;;;;;;;16.67;8.15;;;;;;;37.57;24.41;99442.50;5120137;27;20103;-71
2022/07/03 06:20:41;;;;;;;16.40;8.63;;;;;;;38.07;23.88;99440.34;5118838;27;20042;-72
2022/07/03 06:23:06;;;;;;;10.70;8.50;;;;;;;38.61;23.76;99453.13;5118558;27;20047;-70
2022/07/03 06:25:31;;;;;;;16.13;10.00;;;;;;;39.23;23.02;99449.22;5118762;27;20042;-69
2022/07/03 06:27:56;;;;;;;15.43;8.75;;;;;;;39.83;21.91;99453.00;5083049;27;20083;-70
2022/07/03 06:30:21;;;;;;;13.93;9.68;;;;;;;40.18;21.51;99447.91;5100006;27;20049;-70
2022/07/03 06:32:45;;;;;;;13.60;8.70;;;;;;;40.57;21.01;99453.81;5099976;27;20030;-70
2022/07/03 06:35:10;;;;;;;10.18;8.98;;;;;;;40.95;21.31;99451.63;5083023;27;20065;-69
2022/07/03 06:37:35;;;;;;;12.25;9.25;;;;;;;41.30;20.38;99447.19;5100008;27;20035;-69
2022/07/03 06:40:00;;;;;;;10.25;9.15;;;;;;;41.68;20.72;99452.41;5100490;27;20045;-69
2022/07/03 06:42:25;;;;;;;23.35;18.70;;;;;;;42.00;20.01;99449.31;5100542;27;20042;-73
2022/07/03 06:44:49;;;;;;;31.45;22.95;;;;;;;42.24;19.21;99451.75;5100277;27;20065;-74
2022/07/03 06:47:15;;;;;;;17.90;11.20;;;;;;;42.43;18.98;99457.13;5118501;27;20038;-75
2022/07/03 06:49:40;;;;;;;12.77;9.38;;;;;;;42.73;18.58;99455.38;5100189;27;20046;-74
2022/07/03 06:52:05;;;;;;;15.63;14.00;;;;;;;43.03;18.40;99457.28;5083952;27;20049;-75
2022/07/03 06:54:30;;;;;;;13.07;10.60;;;;;;;43.36;18.48;99468.88;5101371;27;20046;-72
2022/07/03 06:56:55;;;;;;;27.85;25.08;;;;;;;43.76;17.67;99461.09;5102020;27;20037;-72
2022/07/03 06:59:20;;;;;;;22.15;19.65;;;;;;;44.23;17.60;99457.50;5103088;27;20038;-73
2022/07/03 07:01:45;;;;;;;12.35;11.18;;;;;;;44.70;17.46;99459.09;5105668;27;20038;-73
2022/07/03 07:04:11;;;;;;;13.95;11.00;;;;;;;45.29;16.21;99466.66;5087635;27;20090;-72
2022/07/03 07:06:36;;;;;;;15.18;10.25;;;;;;;45.92;15.89;99468.28;5120906;27;20461;-72
2022/07/03 07:09:01;;;;;;;25.67;18.33;;;;;;;46.23;15.61;99468.56;5084790;27;20066;-74
2022/07/03 07:11:26;;;;;;;16.77;13.07;;;;;;;46.57;15.10;99472.13;5133638;27;20043;-71
2022/07/03 07:13:50;;;;;;;12.30;11.10;;;;;;;46.51;15.17;99462.25;5112308;27;20096;-73
2022/07/03 07:16:15;;;;;;;13.38;11.07;;;;;;;46.78;15.09;99466.38;5134016;27;20055;-74
2022/07/03 07:18:41;;;;;;;15.57;11.93;;;;;;;47.13;14.59;99464.69;5107859;27;20593;-73
2022/07/03 07:21:06;;;;;;;11.60;10.52;;;;;;;47.51;14.35;99461.41;5104009;27;20038;-72
2022/07/03 07:23:31;;;;;;;13.32;12.02;;;;;;;47.74;14.19;99472.97;5103593;27;20037;-73
2022/07/03 07:25:56;;;;;;;11.95;10.88;;;;;;;47.97;13.91;99467.56;5122275;27;20050;-74
2022/07/03 07:28:21;;;;;;;13.50;12.13;;;;;;;48.22;14.02;99469.03;5122752;27;20046;-73
2022/07/03 07:30:45;;;;;;;16.02;14.52;;;;;;;48.37;13.66;99470.22;5125831;27;20498;-73
2022/07/03 07:33:10;;;;;;;14.07;11.43;;;;;;;48.32;12.63;99462.00;5123975;27;20149;-69
2022/07/03 07:35:35;;;;;;;11.80;10.80;;;;;;;48.62;12.57;99462.38;5100188;27;20046;-69
2022/07/03 07:38:01;;;;;;;15.45;13.98;;;;;;;49.05;12.90;99462.22;5119597;27;20043;-70
2022/07/03 07:40:26;;;;;;;38.97;29.83;;;;;;;49.40;12.72;99464.19;5101247;27;20041;-69
2022/07/03 07:42:50;;;;;;;25.77;20.40;;;;;;;49.77;11.88;99461.72;5118219;27;20034;-70
2022/07/03 07:45:15;;;;;;;25.02;22.45;;;;;;;50.38;11.70;99467.31;5117055;27;20075;-70
2022/07/03 07:47:40;;;;;;;20.13;18.27;;;;;;;51.23;10.92;99461.38;5116874;27;20058;-70
2022/07/03 07:50:05;;;;;;;17.23;16.05;;;;;;;52.22;10.03;99473.91;5080812;27;20042;-69
2022/07/03 07:52:30;;;;;;;26.52;24.27;;;;;;;52.76;10.13;99475.16;5116645;27;20046;-69
2022/07/03 07:54:55;;;;;;;23.55;21.65;;;;;;;52.90;9.87;99469.59;5117307;27;20042;-69
2022/07/03 07:57:20;;;;;;;25.55;23.02;;;;;;;53.18;9.70;99469.72;5098456;27;20069;-71
2022/07/03 07:59:44;;;;;;;25.05;22.90;;;;;;;53.40;9.85;99470.66;5098173;27;20501;-70
2022/07/03 08:07:36;;;;;;;21.80;20.08;;;;;;;53.50;9.69;99463.41;5116707;27;20057;-69
2022/07/03 08:10:01;;;;;;;29.55;27.23;;;;;;;53.36;9.13;99455.59;5118577;27;20042;-70
2022/07/03 08:12:25;;;;;;;25.95;24.05;;;;;;;53.22;9.70;99461.25;5119980;27;20065;-69
2022/07/03 08:14:50;;;;;;;23.27;21.77;;;;;;;53.21;9.16;99457.56;5099418;27;20180;-69
2022/07/03 08:17:15;;;;;;;22.10;20.52;;;;;;;52.94;9.46;99461.91;5104823;27;20042;-69
2022/07/03 08:19:40;;;;;;;25.40;23.73;;;;;;;52.95;9.48;99470.03;5102745;27;20054;-69
2022/07/03 08:22:05;;;;;;;26.60;25.10;;;;;;;53.48;8.82;99468.69;5116526;27;20046;-69
2022/07/03 08:24:29;;;;;;;24.58;23.02;;;;;;;54.08;8.53;99468.03;5080755;27;20041;-70
2022/07/03 08:26:54;;;;;;;29.98;28.10;;;;;;;53.57;8.89;99463.44;5098192;27;20053;-70
2022/07/03 08:29:19;;;;;;;27.10;25.23;;;;;;;52.75;9.60;99467.81;5098245;27;20031;-69
2022/07/03 08:31:44;;;;;;;27.40;25.63;;;;;;;52.03;10.13;99472.09;5116243;27;20034;-71
2022/07/03 08:34:12;;;;;;;24.38;22.60;;;;;;;51.34;10.35;99450.97;5081254;27;20042;-70
2022/07/03 08:36:37;;;;;;;24.67;22.80;;;;;;;50.86;10.42;99453.50;5080875;27;20095;-72
2022/07/03 08:39:02;;;;;;;19.98;18.73;;;;;;;50.46;10.82;99456.91;5081292;27;20039;-71
2022/07/03 08:41:28;;;;;;;25.85;23.75;;;;;;;50.00;10.84;99444.78;5098972;27;20607;-69
2022/07/03 08:43:54;;;;;;;21.42;19.77;;;;;;;49.67;11.00;99443.28;5116785;27;20038;-68
2022/07/03 08:46:19;;;;;;;22.52;20.88;;;;;;;49.50;11.64;99440.91;5115971;27;20049;-69
2022/07/03 08:48:45;;;;;;;22.17;20.27;;;;;;;49.48;11.23;99443.31;5097687;27;20038;-69
2022/07/03 08:51:11;;;;;;;19.55;18.33;;;;;;;49.38;11.26;99443.91;5115903;27;20047;-69
2022/07/03 08:53:38;;;;;;;17.00;15.90;;;;;;;49.42;11.94;99437.13;5097267;27;20118;-69
2022/07/03 08:56:04;;;;;;;16.73;15.43;;;;;;;48.17;12.47;99432.56;5115836;27;20046;-70
2022/07/03 08:58:30;;;;;;;15.90;14.32;;;;;;;46.52;13.55;99435.69;5115899;27;20034;-69
2022/07/03 09:00:55;;;;;;;15.13;13.73;;;;;;;46.32;13.66;99426.19;5080420;27;20078;-74
2022/07/03 09:03:24;;;;;;;32.65;29.55;;;;;;;46.89;13.29;99431.66;5097373;27;20077;-74
2022/07/03 09:05:50;;;;;;;18.80;17.05;;;;;;;47.68;13.35;99432.81;5116300;27;20057;-73
2022/07/03 09:08:16;;;;;;;16.15;14.07;;;;;;;47.79;13.28;99429.50;5115969;27;20035;-74
2022/07/03 09:10:41;;;;;;;15.02;13.70;;;;;;;47.81;12.84;99421.47;5097870;27;20043;-74
2022/07/03 09:13:06;;;;;;;15.98;14.75;;;;;;;48.18;12.59;99428.56;5080809;27;20069;-74
2022/07/03 09:15:31;;;;;;;36.13;32.78;;;;;;;48.67;12.04;99422.47;5097618;27;20051;-73
2022/07/03 09:18:04;;;;;;;23.33;21.25;;;;;;;49.39;11.71;99425.72;5080178;27;20133;-75
2022/07/03 09:20:38;;;;;;;17.35;16.02;;;;;;;49.25;11.83;99431.09;5116130;27;20099;-74
2022/07/03 09:23:16;;;;;;;54.78;49.35;;;;;;;48.22;11.88;99437.94;5065558;27;20045;-75
2022/07/03 09:25:51;;;;;;;26.38;23.95;;;;;;;47.70;12.43;99435.28;5101820;27;20103;-76
2022/07/03 09:28:16;;;;;;;20.23;18.10;;;;;;;47.83;12.30;99428.41;5120610;27;20038;-74
2022/07/03 09:30:56;;;;;;;18.17;16.65;;;;;;;49.08;11.30;99429.50;5101477;27;20038;-74
2022/07/03 09:33:21;;;;;;;21.58;19.98;;;;;;;49.58;11.59;99422.88;5119765;27;20115;-75
2022/07/03 09:35:52;;;;;;;19.02;17.83;;;;;;;51.19;10.44;99430.03;5101101;27;20415;-69
2022/07/03 09:38:17;;;;;;;22.60;21.20;;;;;;;52.77;9.70;99431.25;5101013;27;20049;-70
2022/07/03 09:40:54;;;;;;;26.60;24.63;;;;;;;54.41;8.63;99447.66;5119381;27;20042;-70
2022/07/03 09:43:29;;;;;;;26.05;23.98;;;;;;;54.00;9.04;99441.53;5100566;27;20038;-69
2022/07/03 09:46:01;;;;;;;28.45;26.25;;;;;;;52.45;9.83;99442.38;5119102;27;20047;-70
2022/07/03 09:48:32;;;;;;;27.02;25.13;;;;;;;52.33;9.81;99434.16;5101207;27;20041;-69
2022/07/03 09:51:19;;;;;;;30.93;28.67;;;;;;;53.82;9.30;99435.78;5067105;27;20059;-70
2022/07/03 09:53:55;;;;;;;45.65;41.75;;;;;;;54.64;8.46;99439.50;5100286;27;20303;-69
2022/07/03 09:56:21;;;;;;;33.22;31.20;;;;;;;54.12;8.39;99440.31;5100843;27;20073;-70
2022/07/03 09:59:05;;;;;;;33.30;31.33;;;;;;;54.26;8.57;99440.34;5101003;27;20035;-70
2022/07/03 10:01:31;;;;;;;26.55;25.05;;;;;;;53.52;8.69;99426.72;5100520;27;20102;-70
2022/07/03 10:04:18;;;;;;;34.35;31.98;;;;;;;54.07;8.62;99430.13;5100529;27;20039;-69
2022/07/03 10:06:47;;;;;;;28.98;27.10;;;;;;;53.38;8.80;99426.69;5120681;27;20043;-69
2022/07/03 10:09:14;;;;;;;30.88;29.10;;;;;;;53.75;8.65;99434.94;5083408;27;20121;-71
2022/07/03 10:11:40;;;;;;;36.33;34.20;;;;;;;54.61;8.16;99428.13;5122546;27;20046;-70
2022/07/03 10:14:06;;;;;;;36.83;34.90;;;;;;;55.50;7.73;99431.53;5118493;27;20122;-69
2022/07/03 10:16:31;;;;;;;40.25;37.88;;;;;;;54.64;8.02;99430.94;5118719;27;20050;-70
2022/07/03 10:18:56;;;;;;;35.53;33.42;;;;;;;53.35;8.02;99427.50;5124776;27;20039;-70
2022/07/03 10:21:21;;;;;;;33.75;31.60;;;;;;;52.21;8.81;99423.88;5127383;27;20059;-68
2022/07/03 10:23:46;;;;;;;30.33;28.73;;;;;;;52.83;8.38;99429.66;5126402;27;20060;-69
2022/07/03 10:26:11;;;;;;;29.50;27.73;;;;;;;53.39;7.68;99423.44;5124524;27;20042;-70
2022/07/03 10:28:36;;;;;;;36.10;34.20;;;;;;;54.29;7.36;99420.38;5088372;27;20045;-68
2022/07/03 10:31:01;;;;;;;38.42;36.08;;;;;;;55.25;7.11;99465.09;5102678;27;20047;-68
2022/07/03 10:33:28;;;;;;;49.75;46.83;;;;;;;56.20;6.61;99471.56;5099636;27;20043;-69
2022/07/03 10:35:55;;;;;;;49.28;46.90;;;;;;;55.73;6.59;99465.28;5118088;27;20121;-71
2022/07/03 10:38:41;;;;;;;38.85;36.70;;;;;;;53.97;7.23;99428.91;5118884;27;20099;-70
2022/07/03 10:46:57;;;;;;;14.98;13.95;;;;;;;43.95;13.66;99401.72;5118520;27;20043;-70
2022/07/03 10:49:23;;;;;;;11.52;10.65;;;;;;;42.21;14.48;99401.97;5118612;27;20037;-71
2022/07/03 10:51:55;;;;;;;10.23;9.35;;;;;;;40.86;15.84;99393.97;5118192;27;20042;-69
2022/07/03 10:54:31;;;;;;;10.48;9.23;;;;;;;39.70;16.95;99395.16;5117667;27;20034;-71
2022/07/03 10:56:59;;;;;;;12.30;8.70;;;;;;;38.48;17.90;99394.22;5099558;27;20042;-69
2022/07/03 10:59:43;;;;;;;8.48;7.78;;;;;;;37.91;18.18;99380.44;5118465;27;20039;-71
2022/07/03 11:02:20;;;;;;;10.20;8.48;;;;;;;37.20;19.19;99383.84;5120110;27;20390;-70
2022/07/03 11:04:57;;;;;;;9.00;8.10;;;;;;;36.64;19.88;99375.84;5119443;27;20868;-69
2022/07/03 11:07:22;;;;;;;9.60;7.50;;;;;;;35.88;20.90;99363.09;5119607;27;20050;-72
2022/07/03 11:09:46;;;;;;;8.27;6.82;;;;;;;35.37;20.65;99359.56;5118691;27;20121;-69
2022/07/03 11:12:11;;;;;;;8.80;7.88;;;;;;;34.87;21.98;99358.44;5118615;27;20051;-70
2022/07/03 11:14:36;;;;;;;8.40;6.95;;;;;;;34.46;22.58;99360.22;5083316;27;20117;-70
2022/07/03 11:17:20;;;;;;;12.25;8.45;;;;;;;34.30;22.27;99364.06;5099911;27;20051;-70
2022/07/03 11:20:23;;;;;;;10.40;6.97;;;;;;;33.78;24.33;99364.03;5117601;27;20043;-69
2022/07/03 11:23:12;;;;;;;11.00;7.00;;;;;;;33.68;24.55;99358.41;5117523;27;20039;-68
2022/07/03 11:25:42;;;;;;;9.77;7.43;;;;;;;33.53;24.25;99359.97;5021201;28;20069;-68
2022/07/03 11:28:07;;;;;;;10.63;7.97;;;;;;;33.37;24.98;99347.16;5007769;28;20169;-68
2022/07/03 11:30:32;;;;;;;8.57;7.50;;;;;;;33.27;26.14;99351.78;5018417;28;20054;-70
2022/07/03 11:32:57;;;;;;;10.80;7.63;;;;;;;33.19;25.61;99350.28;5036226;28;20040;-70
2022/07/03 11:35:48;;;;;;;14.50;7.88;;;;;;;33.13;25.06;99343.91;5034058;28;20131;-70
2022/07/03 11:38:19;;;;;;;7.70;6.82;;;;;;;32.78;26.12;99346.34;5001125;28;20270;-71
2022/07/03 11:40:47;;;;;;;9.27;7.72;;;;;;;32.50;26.08;99349.34;4984040;28;20056;-70
2022/07/03 11:43:14;;;;;;;10.18;7.03;;;;;;;32.21;24.73;99345.97;5010872;28;20393;-69
2022/07/03 11:45:40;;;;;;;13.73;7.80;;;;;;;31.98;25.30;99355.31;5021824;28;20117;-72
2022/07/03 11:48:26;;;;;;;11.95;7.78;;;;;;;31.86;25.28;99362.84;5005735;28;20040;-70